createdAt,value
2018-10-19T00:01:20.449Z,83.53
2018-10-19T00:03:48.864Z,83.59
2018-10-19T00:06:17.358Z,83.03
2018-10-19T00:08:45.854Z,82.89
2018-10-19T00:11:14.416Z,83.22
2018-10-19T00:13:42.775Z,83.26
2018-10-19T00:16:11.212Z,82.63
2018-10-19T00:18:39.648Z,82.61
2018-10-19T00:21:08.150Z,83.11
2018-10-19T00:23:36.447Z,82.67
2018-10-19T00:26:04.962Z,83.36
2018-10-19T00:28:33.355Z,82.94
2018-10-19T00:31:01.766Z,82.66
2018-10-19T00:33:30.202Z,83.20
2018-10-19T00:35:58.585Z,82.92
2018-10-19T00:38:27.001Z,82.95
2018-10-19T00:40:55.502Z,83.17
2018-10-19T00:43:23.893Z,83.00
2018-10-19T00:45:52.401Z,83.37
2018-10-19T00:48:21.358Z,82.76
2018-10-19T00:50:49.767Z,82.83
2018-10-19T00:53:18.193Z,83.24
2018-10-19T00:55:46.685Z,82.58
2018-10-19T00:58:15.105Z,82.76
2018-10-19T01:00:43.624Z,82.74
2018-10-19T01:03:12.084Z,83.40
2018-10-19T01:05:41.083Z,83.38
2018-10-19T01:08:10.080Z,83.25
2018-10-19T01:10:38.605Z,83.12
2018-10-19T01:13:07.031Z,83.22
2018-10-19T01:15:35.445Z,83.39
2018-10-19T01:18:03.921Z,83.25
2018-10-19T01:20:32.348Z,83.37
2018-10-19T01:23:00.813Z,83.20
2018-10-19T01:25:29.289Z,82.96
2018-10-19T01:27:57.735Z,82.81
2018-10-19T01:30:26.177Z,83.13
2018-10-19T01:32:54.622Z,83.12
2018-10-19T01:35:23.036Z,83.38
2018-10-19T01:37:51.549Z,82.79
2018-10-19T01:40:20.006Z,83.42
2018-10-19T01:42:48.428Z,83.17
2018-10-19T01:45:16.836Z,82.32
2018-10-19T01:47:45.263Z,83.33
2018-10-19T01:50:13.664Z,82.91
2018-10-19T01:52:42.225Z,82.55
2018-10-19T01:55:10.627Z,82.79
2018-10-19T01:57:39.100Z,83.78
2018-10-19T02:00:07.980Z,83.33
2018-10-19T02:02:36.565Z,82.57
2018-10-19T02:05:05.027Z,82.83
2018-10-19T02:07:33.532Z,83.13
2018-10-19T02:10:01.948Z,82.98
2018-10-19T02:12:30.393Z,83.21
2018-10-19T02:14:58.802Z,83.20
2018-10-19T02:17:27.226Z,82.74
2018-10-19T02:19:55.642Z,82.62
2018-10-19T02:22:23.995Z,82.42
2018-10-19T02:24:52.460Z,82.63
2018-10-19T02:27:20.942Z,83.10
2018-10-19T02:29:49.338Z,83.42
2018-10-19T02:32:17.777Z,82.49
2018-10-19T02:34:46.180Z,82.63
2018-10-19T02:37:14.584Z,82.95
2018-10-19T02:39:42.976Z,83.23
2018-10-19T02:42:11.409Z,83.32
2018-10-19T02:44:39.852Z,82.73
2018-10-19T02:47:09.234Z,82.65
2018-10-19T02:49:37.601Z,82.49
2018-10-19T02:52:06.773Z,82.43
2018-10-19T02:54:35.200Z,82.82
2018-10-19T02:57:03.636Z,82.99
2018-10-19T02:59:32.070Z,82.88
2018-10-19T03:02:00.485Z,83.11
2018-10-19T03:04:28.932Z,82.56
2018-10-19T03:06:57.319Z,82.82
2018-10-19T03:09:25.708Z,82.76
2018-10-19T03:11:54.129Z,83.02
2018-10-19T03:14:22.573Z,82.94
2018-10-19T03:16:50.963Z,82.99
2018-10-19T03:19:19.418Z,83.08
2018-10-19T03:21:47.824Z,83.32
2018-10-19T03:24:16.245Z,82.27
2018-10-19T03:26:44.645Z,83.11
2018-10-19T03:29:13.175Z,83.39
2018-10-19T03:31:41.459Z,82.86
2018-10-19T03:34:09.854Z,83.49
2018-10-19T03:36:38.225Z,83.37
2018-10-19T03:39:07.925Z,83.51
2018-10-19T03:41:36.347Z,82.78
2018-10-19T03:44:04.889Z,83.68
2018-10-19T03:46:33.342Z,83.05
2018-10-19T03:49:02.024Z,82.79
2018-10-19T03:51:30.472Z,83.62
2018-10-19T03:53:58.848Z,83.91
2018-10-19T03:56:27.236Z,82.90
2018-10-19T03:58:55.680Z,84.22
2018-10-19T04:01:24.055Z,84.27
2018-10-19T04:03:52.510Z,83.18
2018-10-19T04:06:20.936Z,83.71
2018-10-19T04:08:49.315Z,83.93
2018-10-19T04:11:17.770Z,83.91
2018-10-19T04:13:46.183Z,83.89
2018-10-19T04:16:14.624Z,84.00
2018-10-19T04:18:43.032Z,83.79
2018-10-19T04:21:11.537Z,84.37
2018-10-19T04:23:39.872Z,84.31
2018-10-19T04:26:08.298Z,84.68
2018-10-19T04:28:36.696Z,83.93
2018-10-19T04:31:05.136Z,85.15
2018-10-19T04:33:33.544Z,84.52
2018-10-19T04:36:01.996Z,84.92
2018-10-19T04:38:30.427Z,85.01
2018-10-19T04:40:58.905Z,84.41
2018-10-19T04:43:27.196Z,84.67
2018-10-19T04:45:55.660Z,84.68
2018-10-19T04:48:24.066Z,85.45
2018-10-19T04:50:52.494Z,85.42
2018-10-19T04:53:20.965Z,84.87
2018-10-19T04:55:49.380Z,85.17
2018-10-19T04:58:17.782Z,85.54
2018-10-19T05:00:46.215Z,85.45
2018-10-19T05:03:14.696Z,85.20
2018-10-19T05:05:43.143Z,85.40
2018-10-19T05:08:11.524Z,85.09
2018-10-19T05:10:39.875Z,85.64
2018-10-19T05:13:08.386Z,85.40
2018-10-19T05:15:36.704Z,85.49
2018-10-19T05:18:05.360Z,85.81
2018-10-19T05:20:33.774Z,85.64
2018-10-19T05:23:02.323Z,85.14
2018-10-19T05:25:30.676Z,85.27
2018-10-19T05:27:59.052Z,85.03
2018-10-19T05:30:27.443Z,85.09
2018-10-19T05:32:55.910Z,85.24
2018-10-19T05:35:24.304Z,85.18
2018-10-19T05:37:52.717Z,85.40
2018-10-19T05:40:21.144Z,85.57
2018-10-19T05:42:49.646Z,85.60
2018-10-19T05:45:18.075Z,85.73
2018-10-19T05:47:46.493Z,86.23
2018-10-19T05:50:14.920Z,85.13
2018-10-19T05:52:43.308Z,85.24
2018-10-19T05:55:11.753Z,85.58
2018-10-19T05:57:40.159Z,86.30
2018-10-19T06:00:09.607Z,86.03
2018-10-19T06:02:38.122Z,85.65
2018-10-19T06:05:07.310Z,85.52
2018-10-19T06:07:35.708Z,86.24
2018-10-19T06:10:04.583Z,85.74
2018-10-19T06:12:32.960Z,86.55
2018-10-19T06:15:01.361Z,86.31
2018-10-19T06:17:29.772Z,86.04
2018-10-19T06:19:58.210Z,86.07
2018-10-19T06:22:26.637Z,85.56
2018-10-19T06:24:55.055Z,85.35
2018-10-19T06:27:23.478Z,86.06
2018-10-19T06:29:51.884Z,85.54
2018-10-19T06:32:20.369Z,86.02
2018-10-19T06:34:48.828Z,86.10
2018-10-19T06:37:17.278Z,85.89
2018-10-19T06:39:46.009Z,85.18
2018-10-19T06:42:14.458Z,85.99
2018-10-19T06:44:42.848Z,86.40
2018-10-19T06:47:11.388Z,85.27
2018-10-19T06:49:39.758Z,85.61
2018-10-19T06:52:08.215Z,85.04
2018-10-19T06:54:36.597Z,85.68
2018-10-19T06:57:05.244Z,85.51
2018-10-19T06:59:33.715Z,85.04
2018-10-19T07:02:02.110Z,85.47
2018-10-19T07:04:30.511Z,84.73
2018-10-19T07:06:58.918Z,84.81
2018-10-19T07:09:27.326Z,85.61
2018-10-19T07:11:55.712Z,84.74
2018-10-19T07:14:24.116Z,85.35
2018-10-19T07:16:52.540Z,85.26
2018-10-19T07:19:20.985Z,85.61
2018-10-19T07:21:49.508Z,84.45
2018-10-19T07:24:17.867Z,85.37
2018-10-19T07:26:46.319Z,84.57
2018-10-19T07:29:14.746Z,84.82
2018-10-19T07:31:43.181Z,85.04
2018-10-19T07:34:11.613Z,84.59
2018-10-19T07:36:40.065Z,84.42
2018-10-19T07:39:09.192Z,84.58
2018-10-19T07:41:37.627Z,85.27
2018-10-19T07:44:06.383Z,85.32
2018-10-19T07:46:34.786Z,85.08
2018-10-19T07:49:03.209Z,85.11
2018-10-19T07:51:31.673Z,84.90
2018-10-19T07:54:00.130Z,84.73
2018-10-19T07:56:28.528Z,84.52
2018-10-19T07:58:56.964Z,84.27
2018-10-19T08:01:25.361Z,84.20
2018-10-19T08:03:53.764Z,83.31
2018-10-19T08:06:22.254Z,84.15
2018-10-19T08:08:50.629Z,83.78
2018-10-19T08:11:19.107Z,83.75
2018-10-19T08:13:47.461Z,83.99
2018-10-19T08:16:15.897Z,83.96
2018-10-19T08:18:44.329Z,83.82
2018-10-19T08:21:12.803Z,82.83
2018-10-19T08:23:41.236Z,83.54
2018-10-19T08:26:09.644Z,83.02
2018-10-19T08:28:38.087Z,82.47
2018-10-19T08:31:06.652Z,82.20
2018-10-19T08:33:35.372Z,82.96
2018-10-19T08:36:03.904Z,82.72
2018-10-19T08:38:32.317Z,81.97
2018-10-19T08:41:00.789Z,81.52
2018-10-19T08:43:29.135Z,81.31
2018-10-19T08:46:01.714Z,81.36
2018-10-19T08:48:30.124Z,81.14
2018-10-19T08:50:58.576Z,81.33
2018-10-19T08:53:27.041Z,81.34
2018-10-19T08:55:55.405Z,81.38
2018-10-19T08:58:23.869Z,81.03
2018-10-19T09:00:52.230Z,80.81
2018-10-19T09:03:20.676Z,80.75
2018-10-19T09:05:49.088Z,81.14
2018-10-19T09:08:17.487Z,80.66
2018-10-19T09:10:45.997Z,80.04
2018-10-19T09:13:14.364Z,80.28
2018-10-19T09:15:42.814Z,80.36
2018-10-19T09:18:11.437Z,80.36
2018-10-19T09:20:39.859Z,80.72
2018-10-19T09:23:08.335Z,81.06
2018-10-19T09:25:36.765Z,80.69
2018-10-19T09:28:05.235Z,80.92
2018-10-19T09:30:33.742Z,80.82
2018-10-19T09:33:02.166Z,80.72
2018-10-19T09:35:30.559Z,80.88
2018-10-19T09:37:58.923Z,81.43
2018-10-19T09:40:27.335Z,81.33
2018-10-19T09:42:55.791Z,80.13
2018-10-19T09:45:24.170Z,80.93
2018-10-19T09:47:52.641Z,80.88
2018-10-19T09:50:21.088Z,80.25
2018-10-19T09:52:49.471Z,80.31
2018-10-19T09:55:17.929Z,80.54
2018-10-19T09:57:46.249Z,79.42
2018-10-19T10:00:19.829Z,80.45
2018-10-19T10:02:49.156Z,79.59
2018-10-19T10:05:17.675Z,80.28
2018-10-19T10:07:46.044Z,79.74
2018-10-19T10:10:14.445Z,79.59
2018-10-19T10:12:42.872Z,79.50
2018-10-19T10:15:11.487Z,79.43
2018-10-19T10:17:39.793Z,79.04
2018-10-19T10:20:08.700Z,79.31
2018-10-19T10:22:37.100Z,79.46
2018-10-19T10:25:06.581Z,78.77
2018-10-19T10:27:35.063Z,78.21
2018-10-19T10:30:03.641Z,78.27
2018-10-19T10:32:32.061Z,79.17
2018-10-19T10:35:00.525Z,78.81
2018-10-19T10:37:28.977Z,79.08
2018-10-19T10:39:57.390Z,78.25
2018-10-19T10:42:25.819Z,77.91
2018-10-19T10:44:54.209Z,78.15
2018-10-19T10:47:22.615Z,77.85
2018-10-19T10:49:50.991Z,78.71
2018-10-19T10:52:19.396Z,78.70
2018-10-19T10:54:47.843Z,77.73
2018-10-19T10:57:16.817Z,77.85
2018-10-19T10:59:46.232Z,77.14
2018-10-19T11:02:14.653Z,77.24
2018-10-19T11:04:43.079Z,78.16
2018-10-19T11:07:11.592Z,77.53
2018-10-19T11:09:39.998Z,76.94
2018-10-19T11:12:08.444Z,77.12
2018-10-19T11:14:36.851Z,75.78
2018-10-19T11:17:05.352Z,76.54
2018-10-19T11:19:33.750Z,76.26
2018-10-19T11:22:02.843Z,75.79
2018-10-19T11:24:31.267Z,75.25
2018-10-19T11:26:59.728Z,75.83
2018-10-19T11:29:28.097Z,75.22
2018-10-19T11:31:56.496Z,75.45
2018-10-19T11:34:24.906Z,76.45
2018-10-19T11:36:53.307Z,76.92
2018-10-19T11:39:21.620Z,74.92
2018-10-19T11:41:50.029Z,76.06
2018-10-19T11:44:18.468Z,76.52
2018-10-19T11:46:46.970Z,75.86
2018-10-19T11:49:15.847Z,75.51
2018-10-19T11:51:44.213Z,75.12
2018-10-19T11:54:12.615Z,75.94
2018-10-19T11:56:41.514Z,75.14
2018-10-19T11:59:09.875Z,76.05
2018-10-19T12:01:39.128Z,75.51
2018-10-19T12:04:07.588Z,75.76
2018-10-19T12:06:35.976Z,74.85
2018-10-19T12:09:05.679Z,75.97
2018-10-19T12:11:34.053Z,75.23
2018-10-19T12:14:02.437Z,75.20
2018-10-19T12:16:30.933Z,75.00
2018-10-19T12:18:59.365Z,74.82
2018-10-19T12:21:27.747Z,74.83
2018-10-19T12:23:56.163Z,75.69
2018-10-19T12:26:24.579Z,74.46
2018-10-19T12:28:53.005Z,75.00
2018-10-19T12:31:21.420Z,75.08
2018-10-19T12:33:49.875Z,75.02
2018-10-19T12:36:18.295Z,73.99
2018-10-19T12:38:46.676Z,75.12
2018-10-19T12:41:15.630Z,74.13
2018-10-19T12:43:43.970Z,74.15
2018-10-19T12:46:25.239Z,74.33
2018-10-19T12:48:54.288Z,73.42
2018-10-19T12:51:22.721Z,73.54
2018-10-19T12:53:51.155Z,73.83
2018-10-19T12:56:20.493Z,73.88
2018-10-19T12:58:49.984Z,71.79
2018-10-19T13:01:18.584Z,72.24
2018-10-19T13:03:47.003Z,71.07
2018-10-19T13:06:15.384Z,70.28
2018-10-19T13:08:43.836Z,70.12
2018-10-19T13:11:12.275Z,69.71
2018-10-19T13:13:40.700Z,70.95
2018-10-19T13:16:09.171Z,70.63
2018-10-19T13:18:37.564Z,70.77
2018-10-19T13:21:06.009Z,70.79
2018-10-19T13:23:34.691Z,70.77
2018-10-19T13:26:03.477Z,69.85
2018-10-19T13:28:31.976Z,70.07
2018-10-19T13:31:00.425Z,70.68
2018-10-19T13:33:28.818Z,71.20
2018-10-19T13:35:57.264Z,71.72
2018-10-19T13:38:25.842Z,70.67
2018-10-19T13:40:54.868Z,70.65
2018-10-19T13:43:23.750Z,70.67
2018-10-19T13:45:52.660Z,71.41
2018-10-19T13:48:21.632Z,70.79
2018-10-19T13:50:50.036Z,70.26
2018-10-19T13:53:18.410Z,70.40
2018-10-19T13:55:46.881Z,71.06
2018-10-19T13:58:15.360Z,71.22
2018-10-19T14:00:43.825Z,70.70
2018-10-19T14:03:12.271Z,70.32
2018-10-19T14:05:40.801Z,71.82
2018-10-19T14:08:09.087Z,71.86
2018-10-19T14:10:37.517Z,71.07
2018-10-19T14:13:06.226Z,72.21
2018-10-19T14:15:34.624Z,71.14
2018-10-19T14:18:03.414Z,71.75
2018-10-19T14:20:31.815Z,71.58
2018-10-19T14:23:00.317Z,71.11
2018-10-19T14:25:28.687Z,70.88
2018-10-19T14:27:57.109Z,70.85
2018-10-19T14:30:25.577Z,70.69
2018-10-19T14:32:54.011Z,70.49
2018-10-19T14:35:22.449Z,70.80
2018-10-19T14:37:50.866Z,70.58
2018-10-19T14:40:20.355Z,70.85
2018-10-19T14:42:48.917Z,70.93
2018-10-19T14:45:17.829Z,71.17
2018-10-19T14:47:47.205Z,72.09
2018-10-19T14:50:16.881Z,71.37
2018-10-19T14:52:45.315Z,71.93
2018-10-19T14:55:15.262Z,71.31
2018-10-19T14:57:43.685Z,71.24
2018-10-19T15:00:15.662Z,71.48
2018-10-19T15:02:44.075Z,71.05
2018-10-19T15:05:13.909Z,72.08
2018-10-19T15:07:42.333Z,72.18
2018-10-19T15:10:14.378Z,71.51
2018-10-19T15:12:43.067Z,72.45
2018-10-19T15:15:13.962Z,72.60
2018-10-19T15:17:42.353Z,72.07
2018-10-19T15:20:11.355Z,73.34
2018-10-19T15:22:39.797Z,72.29
2018-10-19T15:25:09.204Z,71.65
2018-10-19T15:27:38.236Z,72.34
2018-10-19T15:30:07.995Z,71.93
2018-10-19T15:32:36.516Z,72.47
2018-10-19T15:35:04.979Z,73.02
2018-10-19T15:37:33.426Z,72.58
2018-10-19T15:40:01.887Z,72.10
2018-10-19T15:42:30.282Z,72.98
2018-10-19T15:44:58.722Z,72.59
2018-10-19T15:47:28.897Z,73.01
2018-10-19T15:49:58.332Z,72.92
2018-10-19T15:52:27.247Z,72.25
2018-10-19T15:54:55.632Z,73.01
2018-10-19T15:57:24.128Z,73.87
2018-10-19T15:59:52.480Z,73.19
2018-10-19T16:02:20.935Z,73.48
2018-10-19T16:04:49.999Z,73.72
2018-10-19T16:07:19.032Z,73.59
2018-10-19T16:09:47.614Z,74.38
2018-10-19T16:12:16.175Z,74.62
2018-10-19T16:14:44.626Z,75.02
2018-10-19T16:17:13.083Z,74.77
2018-10-19T16:19:41.848Z,74.48
2018-10-19T16:22:10.304Z,74.76
2018-10-19T16:24:39.496Z,75.17
2018-10-19T16:27:08.018Z,74.48
2018-10-19T16:29:36.409Z,75.30
2018-10-19T16:32:05.469Z,74.43
2018-10-19T16:34:33.949Z,74.94
2018-10-19T16:37:02.383Z,74.42
2018-10-19T16:39:30.816Z,75.23
2018-10-19T16:41:59.442Z,75.07
2018-10-19T16:44:28.857Z,74.83
2018-10-19T16:46:57.272Z,75.34
2018-10-19T16:49:25.696Z,75.04
2018-10-19T16:51:54.137Z,75.38
2018-10-19T16:54:22.602Z,76.02
2018-10-19T16:56:51.004Z,75.51
2018-10-19T16:59:19.485Z,75.26
2018-10-19T17:01:47.876Z,75.40
2018-10-19T17:04:16.335Z,76.61
2018-10-19T17:06:44.730Z,76.37
2018-10-19T17:09:14.210Z,76.18
2018-10-19T17:11:42.926Z,75.89
2018-10-19T17:14:11.688Z,75.79
2018-10-19T17:16:40.107Z,76.60
2018-10-19T17:19:09.943Z,76.45
2018-10-19T17:21:38.411Z,76.23
2018-10-19T17:24:06.901Z,77.28
2018-10-19T17:26:35.325Z,77.18
2018-10-19T17:29:03.785Z,76.85
2018-10-19T17:31:32.281Z,77.12
2018-10-19T17:34:00.576Z,77.23
2018-10-19T17:36:29.013Z,76.37
2018-10-19T17:38:57.461Z,77.22
2018-10-19T17:41:25.886Z,77.82
2018-10-19T17:43:54.313Z,77.89
2018-10-19T17:46:22.733Z,77.38
2018-10-19T17:48:51.566Z,77.94
2018-10-19T17:51:20.024Z,77.27
2018-10-19T17:53:48.469Z,77.96
2018-10-19T17:56:16.911Z,78.24
2018-10-19T17:58:45.346Z,77.22
2018-10-19T18:01:13.731Z,76.89
2018-10-19T18:03:42.200Z,77.43
2018-10-19T18:06:11.723Z,77.58
2018-10-19T18:08:40.040Z,77.73
2018-10-19T18:11:08.553Z,77.56
2018-10-19T18:13:37.011Z,78.03
2018-10-19T18:16:05.566Z,77.14
2018-10-19T18:18:33.913Z,78.15
2018-10-19T18:21:02.436Z,77.99
2018-10-19T18:23:30.856Z,77.74
2018-10-19T18:25:59.323Z,77.98
2018-10-19T18:28:27.727Z,78.78
2018-10-19T18:30:56.155Z,77.93
2018-10-19T18:33:24.532Z,78.57
2018-10-19T18:35:52.987Z,77.88
2018-10-19T18:38:21.382Z,78.79
2018-10-19T18:40:49.845Z,78.64
2018-10-19T18:43:18.253Z,78.71
2018-10-19T18:45:46.631Z,78.64
2018-10-19T18:48:15.068Z,78.58
2018-10-19T18:50:43.565Z,78.59
2018-10-19T18:53:12.051Z,78.82
2018-10-19T18:55:40.417Z,78.93
2018-10-19T18:58:08.835Z,78.44
2018-10-19T19:00:37.273Z,79.68
2018-10-19T19:03:06.190Z,79.38
2018-10-19T19:05:34.651Z,80.20
2018-10-19T19:08:03.111Z,79.50
2018-10-19T19:10:31.562Z,79.22
2018-10-19T19:13:05.310Z,79.21
2018-10-19T19:15:34.265Z,79.35
2018-10-19T19:18:02.686Z,79.15
2018-10-19T19:20:31.446Z,79.41
2018-10-19T19:22:59.883Z,80.04
2018-10-19T19:25:33.656Z,79.32
2018-10-19T19:28:02.646Z,80.42
2018-10-19T19:30:31.123Z,79.93
2018-10-19T19:33:04.928Z,81.05
2018-10-19T19:35:33.361Z,80.29
2018-10-19T19:38:01.881Z,81.05
2018-10-19T19:40:34.416Z,80.89
2018-10-19T19:43:02.836Z,80.77
2018-10-19T19:45:31.273Z,80.86
2018-10-19T19:48:04.963Z,81.30
2018-10-19T19:50:33.466Z,81.53
2018-10-19T19:53:01.919Z,81.35
2018-10-19T19:55:30.323Z,81.00
2018-10-19T19:57:58.852Z,81.16
2018-10-19T20:00:27.277Z,80.29
2018-10-19T20:02:55.776Z,81.32
2018-10-19T20:05:24.220Z,81.14
2018-10-19T20:07:52.721Z,82.12
2018-10-19T20:10:21.164Z,82.11
2018-10-19T20:12:49.579Z,81.20
2018-10-19T20:15:18.007Z,81.55
2018-10-19T20:17:46.409Z,81.33
2018-10-19T20:20:14.915Z,81.61
2018-10-19T20:22:43.447Z,81.50
2018-10-19T20:25:12.666Z,81.11
2018-10-19T20:27:41.560Z,81.57
2018-10-19T20:30:12.772Z,82.03
2018-10-19T20:32:41.195Z,81.36
2018-10-19T20:35:10.116Z,81.78
2018-10-19T20:37:38.483Z,81.88
2018-10-19T20:40:07.019Z,82.07
2018-10-19T20:42:35.505Z,82.14
2018-10-19T20:45:04.506Z,82.37
2018-10-19T20:47:32.977Z,82.13
2018-10-19T20:50:01.449Z,81.95
2018-10-19T20:52:29.833Z,81.37
2018-10-19T20:54:58.229Z,81.90
2018-10-19T20:57:26.662Z,82.53
2018-10-19T20:59:55.073Z,81.98
2018-10-19T21:02:23.494Z,82.36
2018-10-19T21:04:51.941Z,81.96
2018-10-19T21:07:20.556Z,82.25
2018-10-19T21:09:48.885Z,81.93
2018-10-19T21:12:17.329Z,82.16
2018-10-19T21:14:45.778Z,82.30
2018-10-19T21:17:14.273Z,82.23
2018-10-19T21:19:42.625Z,81.86
2018-10-19T21:22:11.049Z,82.26
2018-10-19T21:24:39.488Z,82.15
2018-10-19T21:27:07.937Z,82.48
2018-10-19T21:29:36.386Z,82.29
2018-10-19T21:32:04.927Z,82.13
2018-10-19T21:34:33.372Z,82.83
2018-10-19T21:37:02.757Z,82.57
2018-10-19T21:39:31.160Z,82.43
2018-10-19T21:42:02.198Z,83.09
2018-10-19T21:44:31.579Z,83.06
2018-10-19T21:47:00.046Z,82.79
2018-10-19T21:49:29.551Z,82.38
2018-10-19T21:51:58.351Z,82.31
2018-10-19T21:54:27.803Z,82.46
2018-10-19T21:56:56.934Z,82.72
2018-10-19T21:59:25.352Z,83.23
2018-10-19T22:01:53.790Z,82.22
2018-10-19T22:04:22.229Z,83.75
2018-10-19T22:06:50.669Z,83.80
2018-10-19T22:09:19.081Z,83.37
2018-10-19T22:11:47.496Z,83.15
2018-10-19T22:14:15.955Z,83.63
2018-10-19T22:16:44.421Z,83.46
2018-10-19T22:19:12.900Z,83.20
2018-10-19T22:21:41.680Z,83.41
2018-10-19T22:24:10.857Z,83.74
2018-10-19T22:26:39.655Z,83.44
2018-10-19T22:29:08.317Z,83.38
2018-10-19T22:31:36.895Z,83.14
2018-10-19T22:34:05.492Z,83.20
2018-10-19T22:36:33.881Z,83.06
2018-10-19T22:39:02.990Z,83.48
2018-10-19T22:41:31.420Z,84.02
2018-10-19T22:43:59.785Z,83.01
2018-10-19T22:46:28.257Z,83.36
2018-10-19T22:48:56.730Z,83.21
2018-10-19T22:51:25.250Z,84.05
2018-10-19T22:53:53.614Z,83.17
2018-10-19T22:56:22.106Z,83.77
2018-10-19T22:58:50.589Z,83.45
2018-10-19T23:01:19.689Z,84.25
2018-10-19T23:03:48.206Z,83.51
2018-10-19T23:06:16.670Z,83.77
2018-10-19T23:08:45.127Z,84.48
2018-10-19T23:11:13.753Z,84.19
2018-10-19T23:13:42.200Z,84.69
2018-10-19T23:16:10.676Z,83.67
2018-10-19T23:18:39.128Z,83.96
2018-10-19T23:21:07.553Z,84.44
2018-10-19T23:23:35.965Z,84.08
2018-10-19T23:26:04.534Z,84.44
2018-10-19T23:28:32.949Z,83.36
2018-10-19T23:31:01.533Z,84.45
2018-10-19T23:33:29.959Z,84.28
2018-10-19T23:35:59.384Z,83.36
2018-10-19T23:38:27.787Z,84.03
2018-10-19T23:40:56.248Z,83.97
2018-10-19T23:43:24.615Z,84.22
2018-10-19T23:45:53.017Z,84.16
2018-10-19T23:48:21.453Z,83.90
2018-10-19T23:50:49.860Z,84.33
2018-10-19T23:53:18.313Z,83.88
2018-10-19T23:55:46.721Z,84.18
2018-10-19T23:58:15.121Z,83.65
